»·PEaware :: SWA258 KLAS-KSAN

SWA258 :: KLAS-KSAN

FLIGHT INFORMATION

Flight Status: Arrived
Operator:
Southwest Airlines
More flights by this operator :: More flights under this callsign
Pilot: Brad M. (22842)
Aircraft: BOEING 737-700
(B737)
More flights by this aircraft type
Origin: KLAS McCarran Intl
United States
Destination: KSAN San Diego Intl-Lindbergh
United States
More flights between these airports :: More routes between these airports
Route: BOACH8 LVELL LUCKI1
File this flight plan on PilotEdge
Remarks:
Altitude:
(Current/Filed)
36,000ft
Speed:
(Current/Filed)
467kts
Departed: 30-Apr-20 03:42 PM
Arrived: 30-Apr-20 04:28 PM
Distance/Time
Traveled:
225nm/0:46
Distance/Time
To Go:
Arrived

Flight Plot

Page will automatically refresh every two minutes.

Flight plan parsing failed; only flown route is shown


Map Options




Map Legend


Flown Route
Filed Route
Departure Airport
Arrival Airport
Navaid (VOR, NDB)
Fix

Horizontal Profiles

Position Reports

Time Latitude Longitude Heading Altitude Ground
Speed
30-Apr-20 15:13 36.080110 -115.145604 279 2189ft 0kts
30-Apr-20 15:14 36.080110 -115.145604 279 2189ft 0kts
30-Apr-20 15:15 36.080110 -115.145604 279 2189ft 0kts
30-Apr-20 15:16 36.080110 -115.145604 279 2189ft 0kts
30-Apr-20 15:17 36.080110 -115.145604 279 2189ft 0kts
30-Apr-20 15:18 36.080110 -115.145604 279 2189ft 0kts
30-Apr-20 15:19 36.080110 -115.145604 279 2189ft 0kts
30-Apr-20 15:20 36.080110 -115.145604 279 2189ft 0kts
30-Apr-20 15:22 36.080110 -115.145604 279 2189ft 0kts
30-Apr-20 15:23 36.080110 -115.145604 279 2189ft 0kts
30-Apr-20 15:24 36.080110 -115.145604 279 2189ft 0kts
30-Apr-20 15:25 36.080110 -115.145604 279 2189ft 0kts
30-Apr-20 15:26 36.080110 -115.145604 279 2189ft 0kts
30-Apr-20 15:27 36.080110 -115.145604 279 2189ft 0kts
30-Apr-20 15:28 36.080110 -115.145604 279 2189ft 0kts
30-Apr-20 15:29 36.080081 -115.145167 262 2189ft 2kts
30-Apr-20 15:30 36.080255 -115.144848 179 2189ft 0kts
30-Apr-20 15:31 36.080255 -115.144848 179 2189ft 0kts
30-Apr-20 15:32 36.080255 -115.144848 179 2189ft 0kts
30-Apr-20 15:33 36.079544 -115.144857 180 2189ft 3kts
30-Apr-20 15:34 36.079177 -115.144861 180 2189ft 12kts
30-Apr-20 15:35 36.078271 -115.141392 90 2189ft 11kts
30-Apr-20 15:36 36.078270 -115.136683 90 2189ft 20kts
30-Apr-20 15:36 36.078284 -115.131191 89 2189ft 17kts
30-Apr-20 15:38 36.078281 -115.125011 90 2189ft 13kts
30-Apr-20 15:39 36.077421 -115.121376 140 2189ft 0kts
30-Apr-20 15:39 36.076999 -115.121208 178 2189ft 12kts
30-Apr-20 15:40 36.076424 -115.121642 271 2189ft 0kts
30-Apr-20 15:42 36.076421 -115.135208 269 2191ft 132kts
30-Apr-20 15:42 36.078802 -115.178981 266 4052ft 155kts
30-Apr-20 15:43 36.077283 -115.243698 250 5612ft 222kts
30-Apr-20 15:44 36.017747 -115.279124 191 7915ft 276kts
30-Apr-20 15:45 35.942726 -115.305077 190 11345ft 293kts
30-Apr-20 15:46 35.850715 -115.314319 181 13036ft 366kts
30-Apr-20 15:47 35.746505 -115.302482 177 16114ft 383kts
30-Apr-20 15:48 35.638448 -115.295520 186 19041ft 394kts
30-Apr-20 15:49 35.526532 -115.300679 185 21600ft 409kts
30-Apr-20 15:50 35.410720 -115.305260 185 23761ft 422kts
30-Apr-20 15:51 35.292120 -115.309928 186 25697ft 431kts
30-Apr-20 15:52 35.171376 -115.314671 186 27346ft 438kts
30-Apr-20 15:53 35.048477 -115.319523 186 28720ft 445kts
30-Apr-20 15:54 34.925147 -115.324341 186 30381ft 439kts
30-Apr-20 15:55 34.809291 -115.329741 192 33688ft 395kts
30-Apr-20 15:56 34.705358 -115.364369 204 35095ft 391kts
30-Apr-20 15:57 34.602635 -115.409064 204 35883ft 394kts
30-Apr-20 15:58 34.500332 -115.453735 204 35907ft 390kts
30-Apr-20 15:59 34.398199 -115.498123 204 35920ft 390kts
30-Apr-20 16:00 34.299184 -115.549143 214 35929ft 384kts
30-Apr-20 16:01 34.207338 -115.614949 209 35909ft 386kts
30-Apr-20 16:02 34.107021 -115.663783 206 35903ft 388kts
30-Apr-20 16:03 34.006240 -115.711213 206 35891ft 388kts
30-Apr-20 16:04 33.905669 -115.758669 206 35678ft 393kts
30-Apr-20 16:05 33.805174 -115.808098 206 34578ft 383kts
30-Apr-20 16:06 33.705156 -115.855824 205 31276ft 396kts
30-Apr-20 16:07 33.600338 -115.904716 204 27243ft 412kts
30-Apr-20 16:08 33.502690 -115.972710 230 24336ft 403kts
30-Apr-20 16:09 33.436546 -116.080153 235 21055ft 395kts
30-Apr-20 16:10 33.374815 -116.186044 235 19116ft 383kts
30-Apr-20 16:11 33.297739 -116.273491 209 18216ft 386kts
30-Apr-20 16:12 33.202123 -116.329626 207 15298ft 378kts
30-Apr-20 16:13 33.109070 -116.383829 207 12981ft 363kts
30-Apr-20 16:14 33.022876 -116.434061 207 11959ft 313kts
30-Apr-20 16:15 32.957458 -116.492523 221 10835ft 291kts
30-Apr-20 16:16 32.895810 -116.554953 221 8988ft 290kts
30-Apr-20 16:17 32.835101 -116.616116 221 8593ft 268kts
30-Apr-20 16:18 32.782238 -116.669408 224 8000ft 240kts
30-Apr-20 16:19 32.746492 -116.735201 242 7114ft 237kts
30-Apr-20 16:20 32.714777 -116.802715 241 6010ft 231kts
30-Apr-20 16:21 32.690338 -116.872695 251 5180ft 230kts
30-Apr-20 16:22 32.673203 -116.941548 275 4620ft 201kts
30-Apr-20 16:23 32.688604 -117.003637 285 3231ft 183kts
30-Apr-20 16:24 32.702387 -117.060727 285 2343ft 180kts
30-Apr-20 16:25 32.715689 -117.115779 285 1387ft 152kts
30-Apr-20 16:26 32.726385 -117.160156 286 442ft 133kts
30-Apr-20 16:27 32.734404 -117.193164 285 23ft 24kts
30-Apr-20 16:28 32.734082 -117.195381 249 23ft 0kts
30-Apr-20 16:29 32.733154 -117.195688 227 23ft 0kts
30-Apr-20 16:30 32.733154 -117.195688 227 23ft 0kts
30-Apr-20 16:31 32.733154 -117.195688 227 23ft 0kts
30-Apr-20 16:32 32.733154 -117.195688 227 23ft 0kts

Navigation Log

Ident Type
Flight plan parsing failed, navigation log unavailable